SAV3038 LEMD-EGGD
Flight info
| Callsign | SAV3038 |
|---|---|
| Flight time | 1h 45m |
| Altitude | 34000 |
| Route | SIE N865 DELOG DCT NOVAN DCT IDRIK DCT NOZHU DCT SHIRI DCT TOJAQ |
| Aircraft | A320/M-SDE3FGHIRWY/LB1 |
Departure
| Time | 2026-05-07 14:46 |
|---|---|
| Airport | Adolfo Suárez Madrid–Barajas Airport (LEMD) |
Arrival
| Time | 2026-05-07 16:32 |
|---|---|
| Airport | Bristol Airport (EGGD) |
| Time | Latitude | Longitude | Altitude | Speed | Heading |
|---|---|---|---|---|---|
| 2026-05-07 14:15 | 40.49655 | -3.56359 | 1959 ft | 0 kts | 269° |
| 2026-05-07 14:38 | 40.49655 | -3.56337 | 1958 ft | 4 kts | 272° |
| 2026-05-07 14:38 | 40.49654 | -3.56302 | 1957 ft | 4 kts | 273° |
| 2026-05-07 14:39 | 40.49654 | -3.56267 | 1957 ft | 4 kts | 249° |
| 2026-05-07 14:39 | 40.49662 | -3.56252 | 1963 ft | 0 kts | 176° |
| 2026-05-07 14:42 | 40.49642 | -3.56252 | 1963 ft | 3 kts | 181° |
| 2026-05-07 14:43 | 40.49630 | -3.56252 | 1959 ft | 2 kts | 182° |
| 2026-05-07 14:43 | 40.49582 | -3.56246 | 1960 ft | 8 kts | 159° |
| 2026-05-07 14:43 | 40.49556 | -3.56199 | 1955 ft | 8 kts | 99° |
| 2026-05-07 14:43 | 40.49558 | -3.56130 | 1954 ft | 6 kts | 88° |
| 2026-05-07 14:44 | 40.49557 | -3.56070 | 1954 ft | 7 kts | 91° |
| 2026-05-07 14:44 | 40.49557 | -3.56022 | 1953 ft | 4 kts | 91° |
| 2026-05-07 14:44 | 40.49556 | -3.56000 | 1953 ft | 1 kts | 91° |
| 2026-05-07 14:44 | 40.49556 | -3.55986 | 1953 ft | 5 kts | 90° |
| 2026-05-07 14:45 | 40.49555 | -3.55913 | 1953 ft | 8 kts | 95° |
| 2026-05-07 14:45 | 40.49538 | -3.55852 | 1953 ft | 10 kts | 120° |
| 2026-05-07 14:45 | 40.49457 | -3.55742 | 1952 ft | 26 kts | 141° |
| 2026-05-07 14:45 | 40.49122 | -3.55403 | 1942 ft | 97 kts | 142° |
| 2026-05-07 14:46 | 40.48419 | -3.54691 | 1924 ft | 156 kts | 142° |
| 2026-05-07 14:46 | 40.47434 | -3.53690 | 2069 ft | 191 kts | 142° |
| 2026-05-07 14:46 | 40.46370 | -3.52633 | 2839 ft | 191 kts | 143° |
| 2026-05-07 14:46 | 40.45315 | -3.51592 | 3780 ft | 190 kts | 144° |
| 2026-05-07 14:47 | 40.44221 | -3.50508 | 4258 ft | 207 kts | 144° |
| 2026-05-07 14:47 | 40.43002 | -3.49297 | 4588 ft | 232 kts | 144° |
| 2026-05-07 14:47 | 40.41649 | -3.47949 | 5019 ft | 254 kts | 144° |
| 2026-05-07 14:47 | 40.40221 | -3.46517 | 5757 ft | 262 kts | 144° |
| 2026-05-07 14:48 | 40.38765 | -3.45050 | 6595 ft | 266 kts | 144° |
| 2026-05-07 14:48 | 40.37285 | -3.43556 | 7363 ft | 271 kts | 144° |
| 2026-05-07 14:48 | 40.35734 | -3.42131 | 8131 ft | 274 kts | 153° |
| 2026-05-07 14:48 | 40.34055 | -3.40916 | 8917 ft | 277 kts | 153° |
| 2026-05-07 14:49 | 40.32435 | -3.39501 | 9683 ft | 284 kts | 139° |
| 2026-05-07 14:49 | 40.31199 | -3.37444 | 10389 ft | 293 kts | 120° |
| 2026-05-07 14:49 | 40.30541 | -3.34903 | 11121 ft | 300 kts | 100° |
| 2026-05-07 14:49 | 40.30483 | -3.32151 | 11858 ft | 304 kts | 90° |
| 2026-05-07 14:50 | 40.30686 | -3.29371 | 12579 ft | 309 kts | 82° |
| 2026-05-07 14:50 | 40.31231 | -3.26623 | 13278 ft | 315 kts | 70° |
| 2026-05-07 14:50 | 40.32252 | -3.23987 | 13516 ft | 337 kts | 55° |
| 2026-05-07 14:50 | 40.33763 | -3.21509 | 13681 ft | 358 kts | 51° |
| 2026-05-07 14:51 | 40.35386 | -3.18973 | 14112 ft | 367 kts | 50° |
| 2026-05-07 14:51 | 40.37051 | -3.16407 | 14674 ft | 371 kts | 49° |
| 2026-05-07 14:51 | 40.39020 | -3.14206 | 15241 ft | 376 kts | 30° |
| 2026-05-07 14:51 | 40.41430 | -3.12868 | 15724 ft | 378 kts | 13° |
| 2026-05-07 14:52 | 40.44029 | -3.12565 | 15973 ft | 375 kts | 353° |
| 2026-05-07 14:52 | 40.46586 | -3.13193 | 16228 ft | 375 kts | 345° |
| 2026-05-07 14:52 | 40.49132 | -3.13955 | 16489 ft | 377 kts | 345° |
| 2026-05-07 14:52 | 40.51700 | -3.14717 | 17070 ft | 380 kts | 346° |
| 2026-05-07 14:53 | 40.54289 | -3.15481 | 17676 ft | 383 kts | 346° |
| 2026-05-07 14:53 | 40.56897 | -3.16250 | 18256 ft | 386 kts | 346° |
| 2026-05-07 14:53 | 40.59525 | -3.17025 | 18760 ft | 389 kts | 346° |
| 2026-05-07 14:53 | 40.62177 | -3.17806 | 19255 ft | 392 kts | 346° |
| 2026-05-07 14:54 | 40.64848 | -3.18590 | 19745 ft | 395 kts | 346° |
| 2026-05-07 14:54 | 40.67541 | -3.19381 | 20235 ft | 398 kts | 346° |
| 2026-05-07 14:54 | 40.70253 | -3.20180 | 20701 ft | 401 kts | 346° |
| 2026-05-07 14:54 | 40.72984 | -3.20986 | 21168 ft | 404 kts | 346° |
| 2026-05-07 14:55 | 40.75740 | -3.21799 | 21636 ft | 407 kts | 346° |
| 2026-05-07 14:55 | 40.78513 | -3.22615 | 22105 ft | 410 kts | 346° |
| 2026-05-07 14:55 | 40.81307 | -3.23439 | 22573 ft | 413 kts | 346° |
| 2026-05-07 14:55 | 40.84072 | -3.24481 | 23011 ft | 414 kts | 336° |
| 2026-05-07 14:56 | 40.86602 | -3.26287 | 23448 ft | 414 kts | 322° |
| 2026-05-07 14:56 | 40.88805 | -3.28738 | 23823 ft | 415 kts | 315° |
| 2026-05-07 14:56 | 40.90946 | -3.31314 | 24193 ft | 417 kts | 315° |
| 2026-05-07 14:56 | 40.93101 | -3.33904 | 24577 ft | 419 kts | 315° |
| 2026-05-07 14:57 | 40.95265 | -3.36501 | 24945 ft | 421 kts | 315° |
| 2026-05-07 14:57 | 40.97442 | -3.39113 | 25312 ft | 423 kts | 315° |
| 2026-05-07 14:57 | 40.99629 | -3.41737 | 25677 ft | 426 kts | 315° |
| 2026-05-07 14:57 | 41.01830 | -3.44378 | 26023 ft | 428 kts | 315° |
| 2026-05-07 14:58 | 41.04041 | -3.47032 | 26370 ft | 430 kts | 315° |
| 2026-05-07 14:58 | 41.06260 | -3.49701 | 26717 ft | 432 kts | 315° |
| 2026-05-07 14:58 | 41.08492 | -3.52391 | 27054 ft | 435 kts | 315° |
| 2026-05-07 14:58 | 41.10732 | -3.55096 | 27400 ft | 437 kts | 315° |
| 2026-05-07 14:59 | 41.12983 | -3.57814 | 27744 ft | 439 kts | 315° |
| 2026-05-07 14:59 | 41.15253 | -3.60530 | 28088 ft | 441 kts | 318° |
| 2026-05-07 14:59 | 41.17896 | -3.62609 | 28396 ft | 447 kts | 339° |
| 2026-05-07 14:59 | 41.20966 | -3.63310 | 28694 ft | 453 kts | 1° |
| 2026-05-07 15:00 | 41.24093 | -3.62711 | 28969 ft | 456 kts | 12° |
| 2026-05-07 15:00 | 41.27190 | -3.61748 | 29234 ft | 458 kts | 12° |
| 2026-05-07 15:00 | 41.30340 | -3.61048 | 29517 ft | 460 kts | 6° |
| 2026-05-07 15:00 | 41.33530 | -3.60665 | 29796 ft | 461 kts | 2° |
| 2026-05-07 15:01 | 41.36746 | -3.60577 | 30062 ft | 463 kts | 358° |
| 2026-05-07 15:01 | 41.39967 | -3.60706 | 30305 ft | 464 kts | 356° |
| 2026-05-07 15:01 | 41.43195 | -3.60938 | 30551 ft | 465 kts | 355° |
| 2026-05-07 15:01 | 41.46426 | -3.61180 | 30835 ft | 465 kts | 355° |
| 2026-05-07 15:02 | 41.49657 | -3.61373 | 31189 ft | 464 kts | 356° |
| 2026-05-07 15:02 | 41.52880 | -3.61489 | 31542 ft | 463 kts | 358° |
| 2026-05-07 15:02 | 41.56097 | -3.61511 | 31893 ft | 462 kts | 358° |
| 2026-05-07 15:02 | 41.59306 | -3.61475 | 32228 ft | 461 kts | 359° |
| 2026-05-07 15:03 | 41.62512 | -3.61417 | 32567 ft | 460 kts | 359° |
| 2026-05-07 15:03 | 41.65709 | -3.61366 | 32904 ft | 459 kts | 358° |
| 2026-05-07 15:03 | 41.68899 | -3.61336 | 33242 ft | 458 kts | 358° |
| 2026-05-07 15:03 | 41.72081 | -3.61325 | 33574 ft | 457 kts | 358° |
| 2026-05-07 15:04 | 41.75258 | -3.61329 | 33904 ft | 456 kts | 357° |
| 2026-05-07 15:04 | 41.78430 | -3.61340 | 34177 ft | 455 kts | 357° |
| 2026-05-07 15:04 | 41.81598 | -3.61355 | 34418 ft | 455 kts | 357° |
| 2026-05-07 15:04 | 41.84765 | -3.61366 | 34662 ft | 456 kts | 357° |
| 2026-05-07 15:05 | 41.87938 | -3.61371 | 34880 ft | 456 kts | 357° |
| 2026-05-07 15:05 | 41.91108 | -3.61371 | 35096 ft | 456 kts | 357° |
| 2026-05-07 15:05 | 41.94285 | -3.61369 | 35314 ft | 456 kts | 357° |
| 2026-05-07 15:05 | 41.97463 | -3.61365 | 35518 ft | 457 kts | 357° |
| 2026-05-07 15:06 | 42.00644 | -3.61360 | 35708 ft | 457 kts | 357° |
| 2026-05-07 15:06 | 42.03826 | -3.61380 | 35869 ft | 458 kts | 356° |
| 2026-05-07 15:06 | 42.10169 | -3.61719 | 35908 ft | 455 kts | 354° |
| 2026-05-07 15:07 | 42.16487 | -3.62239 | 35918 ft | 455 kts | 354° |
| 2026-05-07 15:07 | 42.22802 | -3.62717 | 35925 ft | 455 kts | 354° |
| 2026-05-07 15:08 | 42.29128 | -3.63124 | 35922 ft | 455 kts | 355° |
| 2026-05-07 15:08 | 42.35453 | -3.63529 | 35974 ft | 454 kts | 352° |
| 2026-05-07 15:09 | 42.41743 | -3.64684 | 35983 ft | 453 kts | 349° |
| 2026-05-07 15:09 | 42.47984 | -3.65922 | 35970 ft | 454 kts | 349° |
| 2026-05-07 15:10 | 42.54232 | -3.67171 | 35962 ft | 454 kts | 349° |
| 2026-05-07 15:10 | 42.60484 | -3.68427 | 35932 ft | 454 kts | 349° |
| 2026-05-07 15:11 | 42.66737 | -3.69688 | 35930 ft | 454 kts | 349° |
| 2026-05-07 15:11 | 42.73000 | -3.70879 | 35912 ft | 455 kts | 350° |
| 2026-05-07 15:12 | 42.79291 | -3.71917 | 35901 ft | 455 kts | 351° |
| 2026-05-07 15:12 | 42.85581 | -3.72933 | 35902 ft | 455 kts | 350° |
| 2026-05-07 15:13 | 42.91869 | -3.73995 | 35901 ft | 455 kts | 350° |
| 2026-05-07 15:13 | 42.98153 | -3.75084 | 35901 ft | 455 kts | 350° |
| 2026-05-07 15:14 | 43.04438 | -3.76170 | 35901 ft | 455 kts | 350° |
| 2026-05-07 15:14 | 43.09665 | -3.77068 | 35900 ft | 455 kts | 350° |
| 2026-05-07 15:15 | 43.15944 | -3.78155 | 35902 ft | 455 kts | 350° |
| 2026-05-07 15:15 | 43.22229 | -3.79246 | 35903 ft | 455 kts | 350° |
| 2026-05-07 15:16 | 43.28513 | -3.80331 | 35901 ft | 455 kts | 350° |
| 2026-05-07 15:16 | 43.34796 | -3.81419 | 35896 ft | 455 kts | 350° |
| 2026-05-07 15:17 | 43.41078 | -3.82510 | 35896 ft | 455 kts | 350° |
| 2026-05-07 15:17 | 43.47356 | -3.83601 | 35892 ft | 455 kts | 350° |
| 2026-05-07 15:18 | 43.53630 | -3.84697 | 35894 ft | 455 kts | 350° |
| 2026-05-07 15:18 | 43.59906 | -3.85797 | 35895 ft | 455 kts | 350° |
| 2026-05-07 15:19 | 43.66182 | -3.86907 | 35896 ft | 455 kts | 349° |
| 2026-05-07 15:19 | 43.72459 | -3.88011 | 35900 ft | 455 kts | 350° |
| 2026-05-07 15:20 | 43.78735 | -3.89111 | 35906 ft | 455 kts | 349° |
| 2026-05-07 15:20 | 43.85012 | -3.90206 | 35912 ft | 455 kts | 350° |
| 2026-05-07 15:21 | 43.91287 | -3.91322 | 35920 ft | 454 kts | 349° |
| 2026-05-07 15:21 | 43.97556 | -3.92445 | 35925 ft | 454 kts | 350° |
| 2026-05-07 15:22 | 44.03822 | -3.93560 | 35923 ft | 454 kts | 350° |
| 2026-05-07 15:22 | 44.10096 | -3.94672 | 35925 ft | 454 kts | 350° |
| 2026-05-07 15:23 | 44.16371 | -3.95785 | 35929 ft | 454 kts | 350° |
| 2026-05-07 15:23 | 44.22646 | -3.96914 | 35932 ft | 454 kts | 350° |
| 2026-05-07 15:24 | 44.28918 | -3.98047 | 35932 ft | 455 kts | 350° |
| 2026-05-07 15:24 | 44.35241 | -3.98438 | 35931 ft | 458 kts | 3° |
| 2026-05-07 15:25 | 44.41593 | -3.97528 | 35931 ft | 459 kts | 4° |
| 2026-05-07 15:25 | 44.47942 | -3.96629 | 35935 ft | 459 kts | 3° |
| 2026-05-07 15:26 | 44.54299 | -3.95739 | 35936 ft | 459 kts | 3° |
| 2026-05-07 15:26 | 44.60655 | -3.94848 | 35939 ft | 459 kts | 3° |
| 2026-05-07 15:27 | 44.67014 | -3.93954 | 35941 ft | 459 kts | 3° |
| 2026-05-07 15:27 | 44.73370 | -3.93049 | 35943 ft | 459 kts | 3° |
| 2026-05-07 15:28 | 44.79723 | -3.92153 | 35947 ft | 459 kts | 3° |
| 2026-05-07 15:28 | 44.86075 | -3.91262 | 35948 ft | 459 kts | 3° |
| 2026-05-07 15:29 | 44.92424 | -3.90360 | 35948 ft | 459 kts | 4° |
| 2026-05-07 15:29 | 44.98775 | -3.89452 | 35951 ft | 458 kts | 3° |
| 2026-05-07 15:30 | 45.05123 | -3.88541 | 35954 ft | 458 kts | 4° |
| 2026-05-07 15:30 | 45.11468 | -3.87626 | 35954 ft | 458 kts | 4° |
| 2026-05-07 15:31 | 45.17816 | -3.86714 | 35954 ft | 458 kts | 4° |
| 2026-05-07 15:31 | 45.24164 | -3.85804 | 35957 ft | 459 kts | 4° |
| 2026-05-07 15:32 | 45.30558 | -3.84881 | 35959 ft | 459 kts | 4° |
| 2026-05-07 15:32 | 45.36907 | -3.83964 | 35959 ft | 459 kts | 4° |
| 2026-05-07 15:33 | 45.43258 | -3.83036 | 35961 ft | 459 kts | 4° |
| 2026-05-07 15:33 | 45.49611 | -3.82112 | 35968 ft | 459 kts | 4° |
| 2026-05-07 15:34 | 45.55967 | -3.81191 | 35967 ft | 459 kts | 4° |
| 2026-05-07 15:34 | 45.62323 | -3.80260 | 35965 ft | 459 kts | 4° |
| 2026-05-07 15:35 | 45.68687 | -3.79329 | 35973 ft | 460 kts | 4° |
| 2026-05-07 15:35 | 45.75047 | -3.78405 | 35974 ft | 460 kts | 4° |
| 2026-05-07 15:36 | 45.81413 | -3.77472 | 35973 ft | 460 kts | 4° |
| 2026-05-07 15:36 | 45.87781 | -3.76526 | 35979 ft | 460 kts | 4° |
| 2026-05-07 15:37 | 45.94147 | -3.75580 | 35979 ft | 460 kts | 4° |
| 2026-05-07 15:37 | 46.00518 | -3.74636 | 35983 ft | 460 kts | 4° |
| 2026-05-07 15:38 | 46.06887 | -3.73696 | 35985 ft | 460 kts | 4° |
| 2026-05-07 15:38 | 46.13253 | -3.72750 | 35988 ft | 460 kts | 4° |
| 2026-05-07 15:39 | 46.19619 | -3.71802 | 35989 ft | 460 kts | 4° |
| 2026-05-07 15:39 | 46.25987 | -3.70851 | 35989 ft | 460 kts | 4° |
| 2026-05-07 15:40 | 46.32356 | -3.69907 | 35994 ft | 460 kts | 3° |
| 2026-05-07 15:40 | 46.38736 | -3.69390 | 35998 ft | 459 kts | 359° |
| 2026-05-07 15:41 | 46.45118 | -3.69242 | 35997 ft | 459 kts | 359° |
| 2026-05-07 15:41 | 46.51500 | -3.69080 | 35998 ft | 459 kts | 359° |
| 2026-05-07 15:42 | 46.57881 | -3.68814 | 36000 ft | 459 kts | 360° |
| 2026-05-07 15:42 | 46.64258 | -3.68505 | 36002 ft | 459 kts | 360° |
| 2026-05-07 15:43 | 46.70640 | -3.68203 | 36002 ft | 459 kts | 360° |
| 2026-05-07 15:43 | 46.77016 | -3.67914 | 36006 ft | 459 kts | 360° |
| 2026-05-07 15:44 | 46.83395 | -3.67629 | 36004 ft | 458 kts | 360° |
| 2026-05-07 15:44 | 46.89772 | -3.67338 | 36010 ft | 458 kts | 360° |
| 2026-05-07 15:45 | 46.96150 | -3.67051 | 36005 ft | 458 kts | 360° |
| 2026-05-07 15:45 | 47.02527 | -3.66766 | 36010 ft | 458 kts | 360° |
| 2026-05-07 15:46 | 47.12085 | -3.66336 | 36004 ft | 458 kts | 360° |
| 2026-05-07 15:47 | 47.18462 | -3.66047 | 36001 ft | 458 kts | 360° |
| 2026-05-07 15:47 | 47.24838 | -3.65754 | 36004 ft | 458 kts | 360° |
| 2026-05-07 15:48 | 47.31215 | -3.65464 | 36004 ft | 458 kts | 0° |
| 2026-05-07 15:48 | 47.37588 | -3.65162 | 36006 ft | 458 kts | 0° |
| 2026-05-07 15:49 | 47.43962 | -3.64865 | 36002 ft | 458 kts | 360° |
| 2026-05-07 15:49 | 47.50333 | -3.64580 | 36006 ft | 458 kts | 360° |
| 2026-05-07 15:50 | 47.56708 | -3.64291 | 35999 ft | 458 kts | 360° |
| 2026-05-07 15:50 | 47.63081 | -3.64128 | 36005 ft | 458 kts | 357° |
| 2026-05-07 15:51 | 47.69439 | -3.64491 | 36004 ft | 457 kts | 355° |
| 2026-05-07 15:51 | 47.75789 | -3.65007 | 36003 ft | 457 kts | 355° |
| 2026-05-07 15:52 | 47.82146 | -3.65432 | 36002 ft | 457 kts | 355° |
| 2026-05-07 15:52 | 47.88507 | -3.65776 | 35992 ft | 457 kts | 356° |
| 2026-05-07 15:53 | 47.94867 | -3.66113 | 35998 ft | 457 kts | 356° |
| 2026-05-07 15:53 | 48.01228 | -3.66473 | 35995 ft | 457 kts | 355° |
| 2026-05-07 15:54 | 48.06557 | -3.66789 | 35992 ft | 457 kts | 355° |
| 2026-05-07 15:54 | 48.12917 | -3.67163 | 35988 ft | 457 kts | 355° |
| 2026-05-07 15:55 | 48.19279 | -3.67533 | 35988 ft | 457 kts | 355° |
| 2026-05-07 15:55 | 48.25637 | -3.67895 | 35984 ft | 457 kts | 356° |
| 2026-05-07 15:56 | 48.31998 | -3.68254 | 35983 ft | 457 kts | 355° |
| 2026-05-07 15:56 | 48.38358 | -3.68630 | 35982 ft | 457 kts | 355° |
| 2026-05-07 15:57 | 48.44722 | -3.69000 | 35983 ft | 458 kts | 355° |
| 2026-05-07 15:57 | 48.51082 | -3.69369 | 35978 ft | 458 kts | 355° |
| 2026-05-07 15:58 | 48.57448 | -3.69731 | 35975 ft | 458 kts | 355° |
| 2026-05-07 15:58 | 48.63813 | -3.70108 | 35979 ft | 458 kts | 355° |
| 2026-05-07 15:59 | 48.70179 | -3.70488 | 35978 ft | 458 kts | 355° |
| 2026-05-07 15:59 | 48.76544 | -3.70864 | 36001 ft | 458 kts | 355° |
| 2026-05-07 16:00 | 48.82909 | -3.71234 | 36000 ft | 458 kts | 356° |
| 2026-05-07 16:00 | 48.89271 | -3.71612 | 35996 ft | 458 kts | 355° |
| 2026-05-07 16:01 | 48.95639 | -3.71991 | 35993 ft | 458 kts | 356° |
| 2026-05-07 16:01 | 49.02005 | -3.72368 | 35992 ft | 458 kts | 356° |
| 2026-05-07 16:02 | 49.08368 | -3.72747 | 35989 ft | 457 kts | 356° |
| 2026-05-07 16:02 | 49.14724 | -3.73135 | 35994 ft | 457 kts | 356° |
| 2026-05-07 16:03 | 49.21082 | -3.73514 | 35997 ft | 457 kts | 356° |
| 2026-05-07 16:03 | 49.27441 | -3.73894 | 36002 ft | 457 kts | 356° |
| 2026-05-07 16:04 | 49.33797 | -3.74279 | 36006 ft | 457 kts | 356° |
| 2026-05-07 16:04 | 49.40151 | -3.74659 | 36007 ft | 457 kts | 356° |
| 2026-05-07 16:05 | 49.46501 | -3.75044 | 36009 ft | 457 kts | 356° |
| 2026-05-07 16:05 | 49.52850 | -3.75435 | 36012 ft | 456 kts | 356° |
| 2026-05-07 16:06 | 49.59193 | -3.75827 | 36014 ft | 456 kts | 356° |
| 2026-05-07 16:06 | 49.65535 | -3.76210 | 36017 ft | 456 kts | 356° |
| 2026-05-07 16:07 | 49.71877 | -3.76188 | 36017 ft | 457 kts | 3° |
| 2026-05-07 16:07 | 49.78217 | -3.75433 | 36016 ft | 457 kts | 3° |
| 2026-05-07 16:08 | 49.84550 | -3.74677 | 36020 ft | 456 kts | 3° |
| 2026-05-07 16:08 | 49.90883 | -3.73926 | 36027 ft | 456 kts | 3° |
| 2026-05-07 16:09 | 49.97209 | -3.73176 | 36014 ft | 456 kts | 3° |
| 2026-05-07 16:09 | 50.03535 | -3.72427 | 35705 ft | 456 kts | 3° |
| 2026-05-07 16:09 | 50.06695 | -3.72053 | 35454 ft | 455 kts | 3° |
| 2026-05-07 16:10 | 50.09852 | -3.71674 | 35214 ft | 455 kts | 3° |
| 2026-05-07 16:10 | 50.13010 | -3.71295 | 34876 ft | 455 kts | 3° |
| 2026-05-07 16:10 | 50.16184 | -3.70915 | 34182 ft | 457 kts | 3° |
| 2026-05-07 16:10 | 50.19347 | -3.70532 | 33586 ft | 454 kts | 3° |
| 2026-05-07 16:11 | 50.22483 | -3.70152 | 33035 ft | 450 kts | 3° |
| 2026-05-07 16:11 | 50.25591 | -3.69775 | 32464 ft | 446 kts | 3° |
| 2026-05-07 16:11 | 50.28678 | -3.69403 | 31911 ft | 443 kts | 3° |
| 2026-05-07 16:11 | 50.31738 | -3.69040 | 31365 ft | 440 kts | 3° |
| 2026-05-07 16:12 | 50.34782 | -3.68679 | 30824 ft | 437 kts | 2° |
| 2026-05-07 16:12 | 50.37805 | -3.68318 | 30283 ft | 435 kts | 3° |
| 2026-05-07 16:12 | 50.40807 | -3.67955 | 29728 ft | 431 kts | 3° |
| 2026-05-07 16:12 | 50.43780 | -3.67539 | 29216 ft | 427 kts | 4° |
| 2026-05-07 16:13 | 50.46715 | -3.67019 | 28724 ft | 422 kts | 6° |
| 2026-05-07 16:13 | 50.49610 | -3.66439 | 28237 ft | 417 kts | 6° |
| 2026-05-07 16:13 | 50.52469 | -3.65843 | 27763 ft | 412 kts | 6° |
| 2026-05-07 16:13 | 50.55298 | -3.65258 | 27292 ft | 408 kts | 6° |
| 2026-05-07 16:14 | 50.58095 | -3.64696 | 26853 ft | 403 kts | 6° |
| 2026-05-07 16:14 | 50.60860 | -3.64156 | 26411 ft | 398 kts | 5° |
| 2026-05-07 16:14 | 50.63599 | -3.63630 | 25966 ft | 394 kts | 5° |
| 2026-05-07 16:14 | 50.66310 | -3.63114 | 25529 ft | 391 kts | 5° |
| 2026-05-07 16:15 | 50.68995 | -3.62606 | 25091 ft | 387 kts | 5° |
| 2026-05-07 16:15 | 50.71662 | -3.62101 | 24641 ft | 385 kts | 5° |
| 2026-05-07 16:15 | 50.74311 | -3.61597 | 24196 ft | 382 kts | 5° |
| 2026-05-07 16:15 | 50.76943 | -3.61093 | 23734 ft | 380 kts | 5° |
| 2026-05-07 16:16 | 50.79564 | -3.60589 | 23231 ft | 378 kts | 5° |
| 2026-05-07 16:16 | 50.82167 | -3.60087 | 22764 ft | 375 kts | 5° |
| 2026-05-07 16:16 | 50.84746 | -3.59589 | 22310 ft | 372 kts | 5° |
| 2026-05-07 16:16 | 50.87312 | -3.59097 | 21854 ft | 370 kts | 5° |
| 2026-05-07 16:17 | 50.89861 | -3.58603 | 21400 ft | 368 kts | 7° |
| 2026-05-07 16:17 | 50.92329 | -3.57623 | 21118 ft | 362 kts | 20° |
| 2026-05-07 16:17 | 50.94559 | -3.55856 | 20886 ft | 356 kts | 33° |
| 2026-05-07 16:17 | 50.96452 | -3.53426 | 20730 ft | 346 kts | 45° |
| 2026-05-07 16:18 | 50.97955 | -3.50414 | 20099 ft | 353 kts | 59° |
| 2026-05-07 16:18 | 50.99227 | -3.47030 | 19734 ft | 360 kts | 60° |
| 2026-05-07 16:18 | 51.00490 | -3.43600 | 19362 ft | 360 kts | 60° |
| 2026-05-07 16:18 | 51.01747 | -3.40173 | 18995 ft | 358 kts | 60° |
| 2026-05-07 16:19 | 51.02997 | -3.36759 | 18638 ft | 357 kts | 60° |
| 2026-05-07 16:19 | 51.04238 | -3.33361 | 18277 ft | 355 kts | 60° |
| 2026-05-07 16:19 | 51.05473 | -3.29978 | 17862 ft | 353 kts | 60° |
| 2026-05-07 16:19 | 51.06701 | -3.26613 | 17455 ft | 351 kts | 60° |
| 2026-05-07 16:20 | 51.07939 | -3.23221 | 17053 ft | 349 kts | 60° |
| 2026-05-07 16:20 | 51.09155 | -3.19891 | 16660 ft | 347 kts | 60° |
| 2026-05-07 16:20 | 51.10363 | -3.16580 | 16265 ft | 346 kts | 60° |
| 2026-05-07 16:20 | 51.11567 | -3.13280 | 15881 ft | 344 kts | 60° |
| 2026-05-07 16:21 | 51.12765 | -3.09999 | 15492 ft | 342 kts | 60° |
| 2026-05-07 16:21 | 51.13963 | -3.06722 | 15047 ft | 343 kts | 60° |
| 2026-05-07 16:21 | 51.15164 | -3.03434 | 14607 ft | 344 kts | 60° |
| 2026-05-07 16:21 | 51.16324 | -3.00103 | 14165 ft | 344 kts | 64° |
| 2026-05-07 16:22 | 51.17365 | -2.96681 | 13725 ft | 342 kts | 65° |
| 2026-05-07 16:22 | 51.18371 | -2.93315 | 13228 ft | 331 kts | 65° |
| 2026-05-07 16:22 | 51.19355 | -2.90017 | 12738 ft | 330 kts | 65° |
| 2026-05-07 16:22 | 51.20339 | -2.86718 | 12227 ft | 326 kts | 65° |
| 2026-05-07 16:23 | 51.21297 | -2.83494 | 11705 ft | 317 kts | 65° |
| 2026-05-07 16:23 | 51.22229 | -2.80351 | 11194 ft | 310 kts | 65° |
| 2026-05-07 16:23 | 51.23136 | -2.77288 | 10736 ft | 301 kts | 65° |
| 2026-05-07 16:23 | 51.23853 | -2.74206 | 10192 ft | 294 kts | 82° |
| 2026-05-07 16:24 | 51.24004 | -2.70987 | 9589 ft | 290 kts | 90° |
| 2026-05-07 16:24 | 51.24044 | -2.67784 | 8954 ft | 287 kts | 90° |
| 2026-05-07 16:24 | 51.24067 | -2.64611 | 8327 ft | 284 kts | 90° |
| 2026-05-07 16:24 | 51.24082 | -2.61474 | 7716 ft | 281 kts | 90° |
| 2026-05-07 16:25 | 51.24093 | -2.58373 | 7134 ft | 278 kts | 90° |
| 2026-05-07 16:25 | 51.24099 | -2.55307 | 6543 ft | 275 kts | 90° |
| 2026-05-07 16:25 | 51.24102 | -2.52305 | 6192 ft | 261 kts | 90° |
| 2026-05-07 16:25 | 51.24105 | -2.49511 | 5985 ft | 245 kts | 90° |
| 2026-05-07 16:26 | 51.24350 | -2.46886 | 5547 ft | 238 kts | 66° |
| 2026-05-07 16:26 | 51.25362 | -2.44860 | 5076 ft | 235 kts | 33° |
| 2026-05-07 16:26 | 51.26883 | -2.44019 | 4739 ft | 233 kts | 6° |
| 2026-05-07 16:26 | 51.27956 | -2.44008 | 4607 ft | 235 kts | 354° |
| 2026-05-07 16:27 | 51.30117 | -2.44472 | 4327 ft | 231 kts | 351° |
| 2026-05-07 16:27 | 51.31687 | -2.44871 | 4111 ft | 226 kts | 351° |
| 2026-05-07 16:27 | 51.33210 | -2.45262 | 3906 ft | 217 kts | 350° |
| 2026-05-07 16:27 | 51.34670 | -2.45638 | 3688 ft | 209 kts | 350° |
| 2026-05-07 16:28 | 51.36100 | -2.46007 | 3500 ft | 208 kts | 351° |
| 2026-05-07 16:28 | 51.37455 | -2.46672 | 3367 ft | 201 kts | 327° |
| 2026-05-07 16:28 | 51.38452 | -2.48146 | 3345 ft | 193 kts | 303° |
| 2026-05-07 16:28 | 51.38980 | -2.50047 | 3168 ft | 184 kts | 279° |
| 2026-05-07 16:29 | 51.39018 | -2.52049 | 2969 ft | 179 kts | 265° |
| 2026-05-07 16:29 | 51.38944 | -2.54031 | 2730 ft | 178 kts | 265° |
| 2026-05-07 16:29 | 51.38871 | -2.55995 | 2496 ft | 176 kts | 265° |
| 2026-05-07 16:29 | 51.38798 | -2.57939 | 2267 ft | 174 kts | 265° |
| 2026-05-07 16:30 | 51.38726 | -2.59879 | 2020 ft | 174 kts | 265° |
| 2026-05-07 16:30 | 51.38656 | -2.61737 | 1813 ft | 159 kts | 265° |
| 2026-05-07 16:30 | 51.38592 | -2.63439 | 1574 ft | 149 kts | 265° |
| 2026-05-07 16:30 | 51.38530 | -2.65058 | 1364 ft | 144 kts | 265° |
| 2026-05-07 16:31 | 51.38469 | -2.66642 | 1134 ft | 142 kts | 266° |
| 2026-05-07 16:31 | 51.38430 | -2.67678 | 1012 ft | 140 kts | 266° |
| 2026-05-07 16:31 | 51.38371 | -2.69236 | 824 ft | 140 kts | 268° |
| 2026-05-07 16:31 | 51.38314 | -2.70784 | 631 ft | 139 kts | 268° |
| 2026-05-07 16:32 | 51.38262 | -2.72082 | 618 ft | 79 kts | 266° |
| 2026-05-07 16:32 | 51.38239 | -2.72671 | 618 ft | 45 kts | 266° |
| 2026-05-07 16:32 | 51.38223 | -2.73069 | 630 ft | 25 kts | 266° |
| 2026-05-07 16:32 | 51.38216 | -2.73253 | 625 ft | 11 kts | 268° |
| 2026-05-07 16:33 | 51.38239 | -2.73324 | 633 ft | 6 kts | 327° |
| 2026-05-07 16:33 | 51.38289 | -2.73341 | 623 ft | 12 kts | 356° |
| 2026-05-07 16:33 | 51.38367 | -2.73292 | 634 ft | 13 kts | 51° |
| 2026-05-07 16:33 | 51.38387 | -2.73157 | 622 ft | 12 kts | 86° |
| 2026-05-07 16:34 | 51.38393 | -2.73029 | 621 ft | 11 kts | 85° |
| 2026-05-07 16:34 | 51.38398 | -2.72892 | 620 ft | 16 kts | 87° |
| 2026-05-07 16:34 | 51.38405 | -2.72662 | 627 ft | 23 kts | 86° |
| 2026-05-07 16:34 | 51.38416 | -2.72392 | 618 ft | 25 kts | 86° |
| 2026-05-07 16:35 | 51.38427 | -2.72100 | 621 ft | 26 kts | 87° |
| 2026-05-07 16:35 | 51.38430 | -2.71837 | 616 ft | 25 kts | 88° |
| 2026-05-07 16:35 | 51.38439 | -2.71566 | 625 ft | 24 kts | 86° |
| 2026-05-07 16:35 | 51.38448 | -2.71321 | 613 ft | 20 kts | 86° |
| 2026-05-07 16:36 | 51.38454 | -2.71193 | 613 ft | 9 kts | 85° |
| 2026-05-07 16:36 | 51.38462 | -2.71140 | 612 ft | 2 kts | 34° |
| 2026-05-07 16:36 | 51.38493 | -2.71140 | 612 ft | 10 kts | 357° |
| 2026-05-07 16:36 | 51.38544 | -2.71146 | 616 ft | 3 kts | 356° |
| 2026-05-07 16:37 | 51.38553 | -2.71146 | 619 ft | 0 kts | 356° |